<?xml version="1.0" encoding="UTF-8" standalone="no" ?>
<gpx xmlns="http://www.topografix.com/GPX/1/1" xmlns:xsi="http://www.w3.org/2001/XMLSchema-instance" xsi:schemaLocation="http://www.topografix.com/GPX/1/1 http://www.topografix.com/GPX/1/1/gpx.xsd" version="1.1" creator="VisuGPX - https://www.visugpx.com">
  <metadata>
    <name>ChailléOrmeaux_Boucles_19km</name>
    <desc><![CDATA[gnerando idor:6553433_6553489_6956451_7846715_7847315_8111388_8144845]]></desc>
  </metadata>
  <trk>
    <name><![CDATA[ChailléOrmeaux_Sureau_9.7km-7847315]]></name>
    <extensions>
      <line xmlns="http://www.topografix.com/GPX/gpx_style/0/2">
        <color>00FFFF</color>
        <width>4</width>
      </line>
    </extensions>
    <trkseg>
      <trkpt lat="46.58402" lon="-1.36529">
        <ele>42</ele>
        <time>2023-10-31T20:56:35Z</time>
      </trkpt>
      <trkpt lat="46.58391" lon="-1.36634">
        <ele>44</ele>
        <time>2023-10-31T20:58:12Z</time>
      </trkpt>
      <trkpt lat="46.58158" lon="-1.36732">
        <ele>39</ele>
        <time>2023-10-31T21:03:36Z</time>
      </trkpt>
      <trkpt lat="46.58063" lon="-1.3684">
        <ele>45</ele>
        <time>2023-10-31T21:06:17Z</time>
      </trkpt>
      <trkpt lat="46.57839" lon="-1.37097">
        <ele>58</ele>
        <time>2023-10-31T21:12:38Z</time>
      </trkpt>
      <trkpt lat="46.57553" lon="-1.37535">
        <ele>65</ele>
        <time>2023-10-31T21:21:52Z</time>
      </trkpt>
      <trkpt lat="46.57296" lon="-1.37745">
        <ele>67</ele>
        <time>2023-10-31T21:28:25Z</time>
      </trkpt>
      <trkpt lat="46.57163" lon="-1.37724">
        <ele>67</ele>
        <time>2023-10-31T21:31:24Z</time>
      </trkpt>
      <trkpt lat="46.57093" lon="-1.37758">
        <ele>69</ele>
        <time>2023-10-31T21:33:02Z</time>
      </trkpt>
      <trkpt lat="46.56924" lon="-1.37668">
        <ele>75</ele>
        <time>2023-10-31T21:37:02Z</time>
      </trkpt>
      <trkpt lat="46.56877" lon="-1.37788">
        <ele>75</ele>
        <time>2023-10-31T21:39:09Z</time>
      </trkpt>
      <trkpt lat="46.56402" lon="-1.37119">
        <ele>69</ele>
        <time>2023-10-31T21:53:51Z</time>
      </trkpt>
      <trkpt lat="46.56523" lon="-1.36788">
        <ele>72</ele>
        <time>2023-10-31T21:59:35Z</time>
      </trkpt>
      <trkpt lat="46.56606" lon="-1.36724">
        <ele>69</ele>
        <time>2023-10-31T22:01:41Z</time>
      </trkpt>
      <trkpt lat="46.56591" lon="-1.36556">
        <ele>68</ele>
        <time>2023-10-31T22:04:16Z</time>
      </trkpt>
      <trkpt lat="46.56629" lon="-1.3626">
        <ele>67</ele>
        <time>2023-10-31T22:08:52Z</time>
      </trkpt>
      <trkpt lat="46.56591" lon="-1.35964">
        <ele>59</ele>
        <time>2023-10-31T22:13:29Z</time>
      </trkpt>
      <trkpt lat="46.56615" lon="-1.35814">
        <ele>53</ele>
        <time>2023-10-31T22:15:50Z</time>
      </trkpt>
      <trkpt lat="46.5642" lon="-1.35638">
        <ele>50</ele>
        <time>2023-10-31T22:20:56Z</time>
      </trkpt>
      <trkpt lat="46.56178" lon="-1.35784">
        <ele>62</ele>
        <time>2023-10-31T22:26:46Z</time>
      </trkpt>
      <trkpt lat="46.5603" lon="-1.35496">
        <ele>52</ele>
        <time>2023-10-31T22:32:16Z</time>
      </trkpt>
      <trkpt lat="46.55942" lon="-1.35239">
        <ele>46</ele>
        <time>2023-10-31T22:36:39Z</time>
      </trkpt>
      <trkpt lat="46.55797" lon="-1.35093">
        <ele>40</ele>
        <time>2023-10-31T22:40:34Z</time>
      </trkpt>
      <trkpt lat="46.55874" lon="-1.34908">
        <ele>28</ele>
        <time>2023-10-31T22:43:53Z</time>
      </trkpt>
      <trkpt lat="46.5588" lon="-1.34732">
        <ele>29</ele>
        <time>2023-10-31T22:46:35Z</time>
      </trkpt>
      <trkpt lat="46.55968" lon="-1.34805">
        <ele>27</ele>
        <time>2023-10-31T22:48:50Z</time>
      </trkpt>
      <trkpt lat="46.56122" lon="-1.3496">
        <ele>27</ele>
        <time>2023-10-31T22:53:00Z</time>
      </trkpt>
      <trkpt lat="46.5624" lon="-1.34968">
        <ele>32</ele>
        <time>2023-10-31T22:55:37Z</time>
      </trkpt>
      <trkpt lat="46.56278" lon="-1.34818">
        <ele>38</ele>
        <time>2023-10-31T22:58:04Z</time>
      </trkpt>
      <trkpt lat="46.56382" lon="-1.34707">
        <ele>40</ele>
        <time>2023-10-31T23:00:56Z</time>
      </trkpt>
      <trkpt lat="46.56461" lon="-1.34827">
        <ele>41</ele>
        <time>2023-10-31T23:03:29Z</time>
      </trkpt>
      <trkpt lat="46.56585" lon="-1.349">
        <ele>42</ele>
        <time>2023-10-31T23:06:27Z</time>
      </trkpt>
      <trkpt lat="46.56615" lon="-1.34968">
        <ele>37</ele>
        <time>2023-10-31T23:07:41Z</time>
      </trkpt>
      <trkpt lat="46.56727" lon="-1.3496">
        <ele>37</ele>
        <time>2023-10-31T23:10:11Z</time>
      </trkpt>
      <trkpt lat="46.56786" lon="-1.35093">
        <ele>30</ele>
        <time>2023-10-31T23:12:36Z</time>
      </trkpt>
      <trkpt lat="46.5686" lon="-1.3514">
        <ele>36</ele>
        <time>2023-10-31T23:14:24Z</time>
      </trkpt>
      <trkpt lat="46.5696" lon="-1.35372">
        <ele>40</ele>
        <time>2023-10-31T23:18:35Z</time>
      </trkpt>
      <trkpt lat="46.57155" lon="-1.35243">
        <ele>45</ele>
        <time>2023-10-31T23:23:21Z</time>
      </trkpt>
      <trkpt lat="46.57214" lon="-1.35522">
        <ele>40</ele>
        <time>2023-10-31T23:27:49Z</time>
      </trkpt>
      <trkpt lat="46.57308" lon="-1.35513">
        <ele>36</ele>
        <time>2023-10-31T23:29:54Z</time>
      </trkpt>
      <trkpt lat="46.57458" lon="-1.354">
        <ele>37</ele>
        <time>2023-10-31T23:33:40Z</time>
      </trkpt>
      <trkpt lat="46.57582" lon="-1.35357">
        <ele>38</ele>
        <time>2023-10-31T23:36:30Z</time>
      </trkpt>
      <trkpt lat="46.57674" lon="-1.35453">
        <ele>34</ele>
        <time>2023-10-31T23:39:01Z</time>
      </trkpt>
      <trkpt lat="46.57827" lon="-1.35398">
        <ele>50</ele>
        <time>2023-10-31T23:42:31Z</time>
      </trkpt>
      <trkpt lat="46.57868" lon="-1.35694">
        <ele>41</ele>
        <time>2023-10-31T23:47:08Z</time>
      </trkpt>
      <trkpt lat="46.57824" lon="-1.35857">
        <ele>34</ele>
        <time>2023-10-31T23:49:49Z</time>
      </trkpt>
      <trkpt lat="46.57922" lon="-1.36067">
        <ele>40</ele>
        <time>2023-10-31T23:53:42Z</time>
      </trkpt>
      <trkpt lat="46.58045" lon="-1.36243">
        <ele>42</ele>
        <time>2023-10-31T23:57:32Z</time>
      </trkpt>
      <trkpt lat="46.58175" lon="-1.3626">
        <ele>35</ele>
        <time>2023-11-01T00:00:26Z</time>
      </trkpt>
      <trkpt lat="46.58211" lon="-1.36131">
        <ele>40</ele>
        <time>2023-11-01T00:02:34Z</time>
      </trkpt>
      <trkpt lat="46.58314" lon="-1.3644">
        <ele>35</ele>
        <time>2023-11-01T00:07:49Z</time>
      </trkpt>
      <trkpt lat="46.58405" lon="-1.36522">
        <ele>42</ele>
        <time>2023-11-01T00:10:12Z</time>
      </trkpt>
    </trkseg>
  </trk>
</gpx>